• Join FlightAware (Why Join?)
  • Login
  • US Flag 
01:51AM EDT


 

Airport Tracker/Info


-or-


 

Live Flight TrackerFlight Track Log ✈ ACA620 ✈ 20-Apr-2013 ✈ CYYZ - CYHZ

Flight Track Log - Related Links

Times and Time Zones

All times are in EDT time to prevent confusion due to time zone crossing. See the ACA620 flight status page for this flight to view local times or setup timezone preferences in your user account.

Time Position Orientation Groundspeed Altitude Reporting Facility
EDT Latitude Longitude Course Direction KTS MPH feet Rate Location/Type
07:28PM 43.6630 -79.6210 90° East 163 188 800  Level FlightAware
07:28PM 43.6460 -79.6410 220° Southwest 170 196 2,300 3,060 Climbing FlightAware
07:29PM 43.6260 -79.6580 212° Southwest 179 206 3,900 2,700 Climbing FlightAware
07:29PM 43.6010 -79.6490 165° South 247 284 4,800 2,400 Climbing FlightAware
07:29PM 43.5890 -79.6310 133° Southeast 272 313 5,500 2,580 Climbing FlightAware
07:30PM 43.5820 -79.6050 110° East 285 328 6,100 1,800 Climbing FlightAware
07:30PM 43.5790 -79.5800 99° East 294 338 6,400 720 Climbing FlightAware
07:30PM 43.5850 -79.5320 80° East 292 336 6,600 300 Climbing FlightAware
07:31PM 43.5920 -79.4790 80° East 286 329 6,700 840 Climbing FlightAware
07:31PM 43.5980 -79.4340 80° East 294 338 7,400 3,120 Climbing FlightAware
07:32PM 43.6060 -79.3780 79° East 294 338 9,600 2,880 Climbing FlightAware
07:32PM 43.6170 -79.2960 79° East 359 413 10,800 2,580 Climbing FlightAware
07:33PM 43.6370 -79.2040 73° East 384 442 13,100 3,060 Climbing FlightAware
07:34PM 43.6650 -79.0960 70° East 416 479 15,200 3,120 Climbing FlightAware
07:35PM 43.6950 -78.9790 70° East 433 498 17,800 3,300 Climbing FlightAware
07:35PM 43.7220 -78.8750 70° East 442 509 19,900 3,000 Climbing FlightAware
07:36PM 43.7480 -78.7750 70° East 451 519 21,800 2,700 Climbing FlightAware
07:37PM 43.7810 -78.6440 71° East 472 543 23,800 2,280 Climbing FlightAware
07:37PM 43.8100 -78.5270 71° East 492 566 25,100 1,800 Climbing FlightAware
07:38PM 43.8390 -78.4090 71° East 516 594 26,200 1,620 Climbing FlightAware
07:39PM 43.8750 -78.2650 71° East 537 618 27,400 1,860 Climbing FlightAware
07:39PM 43.9080 -78.1340 71° East 544 626 28,900 2,220 Climbing FlightAware
07:40PM 43.9400 -78.0020 71° East 546 628 30,400 1,440 Climbing FlightAware
07:41PM 43.9770 -77.8510 71° East 549 632 31,000 360 Climbing FlightAware
07:42PM 44.0130 -77.7020 71° East 542 624 31,000  Level FlightAware
07:42PM 44.0450 -77.5720 71° East 539 620 31,000  Level FlightAware
07:43PM 44.0770 -77.4420 71° East 539 620 31,000  Level FlightAware
07:44PM 44.1220 -77.2970 67° East 534 615 31,000  Level FlightAware
07:44PM 44.1600 -77.1820 65° Northeast 528 608 31,000  Level FlightAware
07:45PM 44.2030 -77.0530 65° Northeast 525 604 31,000  Level FlightAware
07:46PM 44.2490 -76.9130 65° Northeast 525 604 31,000  Level FlightAware
07:46PM 44.2880 -76.7920 66° East 525 604 31,000  Level FlightAware
07:47PM 44.3350 -76.6470 66° East 522 601 31,000  Level FlightAware
07:48PM 44.3740 -76.5240 66° East 525 604 31,000  Level FlightAware
07:49PM 44.4190 -76.3840 66° East 527 606 31,000  Level FlightAware
07:49PM 44.4580 -76.2620 66° East 527 606 31,000  Level FlightAware
07:50PM 44.4980 -76.1360 66° East 530 610 31,000  Level FlightAware
07:51PM 44.5430 -75.9920 66° East 534 615 31,000  Level FlightAware
07:51PM 44.5820 -75.8650 67° East 531 611 31,000  Level FlightAware
07:52PM 44.6260 -75.7240 66° East 535 616 31,000  Level FlightAware
07:53PM 44.6590 -75.6190 66° East 538 619 31,000  Level FlightAware
07:53PM 44.7030 -75.4560 69° East 543 625 31,000  Level FlightAware
07:54PM 44.7430 -75.3050 70° East 546 628 31,000  Level FlightAware
07:55PM 44.7770 -75.1760 70° East 543 625 31,000  Level FlightAware
07:56PM 44.8130 -75.0420 69° East 543 625 31,000  Level FlightAware
07:56PM 44.8470 -74.9160 69° East 543 625 31,000  Level FlightAware
07:57PM 44.8880 -74.7630 69° East 543 625 31,000  Level FlightAware
07:58PM 44.9220 -74.6340 70° East 544 626 31,000  Level FlightAware
07:58PM 44.9610 -74.4830 70° East 547 629 31,000  Level FlightAware
07:59PM 44.9950 -74.3470 70° East 547 629 31,000  Level FlightAware
08:00PM 45.0250 -74.1970 74° East 547 629 31,000  Level FlightAware
08:00PM 45.0510 -74.0520 76° East 551 634 31,000  Level FlightAware
08:01PM 45.0800 -73.8910 76° East 554 638 31,000  Level FlightAware
08:02PM 45.1050 -73.7500 76° East 558 642 31,000  Level FlightAware
08:02PM 45.1260 -73.6300 76° East 559 643 31,000  Level FlightAware
08:03PM 45.1480 -73.5030 76° East 560 644 31,000  Level FlightAware
08:04PM 45.1720 -73.3620 76° East 561 646 31,000  Level FlightAware
08:04PM 45.1990 -73.2020 76° East 563 648 31,000  Level FlightAware
08:05PM 45.2240 -73.0580 76° East 565 650 31,000  Level FlightAware
08:06PM 45.2520 -72.8920 76° East 569 655 31,000  Level FlightAware
08:06PM 45.2720 -72.7700 77° East 572 658 31,000  Level FlightAware
08:07PM 45.2940 -72.6280 78° East 570 656 31,000  Level FlightAware
08:08PM 45.3060 -72.4770 84° East 564 649 31,000  Level FlightAware
08:09PM 45.3160 -72.3090 85° East 562 647 31,000  Level FlightAware
08:09PM 45.3230 -72.1610 86° East 561 646 31,000  Level FlightAware
08:10PM 45.3300 -72.0340 85° East 558 642 31,000  Level FlightAware
08:10PM 45.3360 -71.9200 86° East 557 641 31,000  Level FlightAware
08:11PM 45.3440 -71.7540 86° East 552 635 31,000  Level FlightAware
08:12PM 45.3500 -71.6240 86° East 551 634 31,000  Level FlightAware
08:12PM 45.3531 -71.4950 86° East 544 626 31,000  Level Boston Center
08:13PM 45.3500 -71.3667 92° East 550 633 31,000  Level Montreal Center
08:14PM 45.3667 -71.1500 84° East 550 633 31,000  Level Montreal Center
08:15PM 45.3500 -70.9333 96° East 550 633 31,000  Level Montreal Center
08:15PM 45.3650 -70.8656 72° East 549 632 31,000  Level Boston Center
08:16PM 45.3558 -70.6503 93° East 549 632 31,000  Level Boston Center
08:17PM 45.3439 -70.4350 94° East 549 632 31,000  Level Boston Center
08:18PM 45.3294 -70.2200 95° East 554 638 31,000  Level Boston Center
08:19PM 45.3189 -70.0050 94° East 554 638 31,000  Level Boston Center
08:21PM 45.3058 -69.7872 95° East 554 638 31,000  Level Boston Center
08:22PM 45.2914 -69.5311 94° East 554 638 31,000  Level Boston Center
08:27PM 45.2100 -68.3470 94° East 528 608 31,000  Level FlightAware
08:28PM 45.2000 -68.2120 96° East 526 605 31,000  Level FlightAware
08:28PM 45.1890 -68.0720 96° East 528 608 31,000  Level FlightAware
08:29PM 45.1810 -67.9690 96° East 530 610 31,000  Level FlightAware
08:30PM 45.1690 -67.8170 96° East 531 611 31,000  Level FlightAware
08:30PM 45.1580 -67.6740 96° East 532 612 31,000  Level FlightAware
08:31PM 45.1480 -67.5430 96° East 532 612 31,000  Level FlightAware
08:32PM 45.1330 -67.3580 96° East 531 611 31,000  Level FlightAware
08:33PM 45.1200 -67.2000 97° East 530 610 31,000  Level FlightAware
08:33PM 45.1080 -67.0600 97° East 528 608 31,000  Level FlightAware
08:34PM 45.0940 -66.9090 97° East 526 605 31,000  Level FlightAware
08:35PM 45.0820 -66.7710 97° East 523 602 31,000  Level FlightAware
08:35PM 45.0690 -66.6200 97° East 522 601 31,000  Level FlightAware
08:36PM 45.0570 -66.4830 97° East 520 598 31,000  Level FlightAware
08:37PM 45.0440 -66.3470 98° East 518 596 31,000  Level FlightAware
08:37PM 45.0300 -66.1990 98° East 517 595 31,000  Level FlightAware
08:38PM 45.0180 -66.0640 97° East 515 593 31,000 -120 Level FlightAware
08:39PM 45.0040 -65.9140 97° East 511 588 30,900 -1,080 Descending FlightAware
08:40PM 44.9910 -65.7840 98° East 512 589 29,500 -1,920 Descending FlightAware
08:40PM 44.9780 -65.6530 98° East 495 570 28,400 -1,860 Descending FlightAware
08:41PM 44.9650 -65.5120 97° East 485 558 26,900 -2,160 Descending FlightAware
08:42PM 44.9520 -65.3850 98° East 481 554 25,400 -2,100 Descending FlightAware
08:42PM 44.9390 -65.2640 99° East 472 543 24,100 -2,160 Descending FlightAware
08:43PM 44.9260 -65.1250 97° East 475 547 22,400 -2,220 Descending FlightAware
08:44PM 44.9230 -64.9990 92° East 478 550 21,000 -1,980 Descending FlightAware
08:44PM 44.9240 -64.8630 89° East 464 534 19,600 -1,740 Descending FlightAware
08:45PM 44.9250 -64.7480 89° East 446 513 18,600 -1,800 Descending FlightAware
08:46PM 44.9260 -64.6290 89° East 436 502 17,200 -1,980 Descending FlightAware
08:47PM 44.9270 -64.5020 89° East 424 488 15,800 -2,040 Descending FlightAware
08:47PM 44.9270 -64.4120 90° East 425 489 14,500 -1,980 Descending FlightAware
08:48PM 44.9270 -64.2880 90° East 420 483 13,000 -1,500 Descending FlightAware
08:49PM 44.9270 -64.1500 90° East 408 470 12,000 -2,040 Descending FlightAware
08:50PM 44.9280 -64.0230 89° East 400 460 9,800 -1,920 Descending FlightAware
08:50PM 44.9280 -63.9610 90° East 400 460 9,800 -1,140 Level FlightAware
08:51PM 44.9350 -63.8720 84° East 364 419 8,700 -1,200 Descending FlightAware
08:51PM 44.9370 -63.8250 87° East 343 395 8,700 -540 Level FlightAware
08:52PM 44.9500 -63.7230 80° East 334 384 8,100 -900 Descending FlightAware
08:52PM 44.9580 -63.6770 76° East 327 376 7,700 -1,020 Descending FlightAware
08:53PM 44.9680 -63.6120 78° East 311 358 7,200 -600 Descending FlightAware
08:53PM 44.9920 -63.5200 70° East 303 349 6,900 -1,200 Descending FlightAware
08:54PM 45.0167 -63.5000 70° East 300 345 5,600 -1,680 Descending Moncton Center
08:55PM 45.0833 -63.4000 47° Northeast 280 322 4,400 -1,020 Descending Moncton Center
08:56PM 45.0500 -63.3333 125° Southeast 220 253 3,600 -540 Descending Moncton Center
08:57PM 45.0167 -63.3500 199° South 180 207 3,400 -420 Descending Moncton Center
08:58PM 44.9667 -63.4000 215° Southwest 160 184 2,800 -720 Descending Moncton Center
08:59PM 44.9333 -63.4333 215° Southwest 150 173 2,000 -840 Descending Moncton Center